createdAt,value
2023-09-17T00:01:12.467Z,59.90
2023-09-17T00:03:14.308Z,59.90
2023-09-17T00:05:16.881Z,60.00
2023-09-17T00:07:18.811Z,60.10
2023-09-17T00:09:20.617Z,60.10
2023-09-17T00:11:22.644Z,60.10
2023-09-17T00:13:25.016Z,60.00
2023-09-17T00:15:27.886Z,60.00
2023-09-17T00:17:29.889Z,60.10
2023-09-17T00:19:33.833Z,60.00
2023-09-17T00:21:35.800Z,60.10
2023-09-17T00:23:37.732Z,60.10
2023-09-17T00:25:41.689Z,60.20
2023-09-17T00:27:43.545Z,60.20
2023-09-17T00:29:45.317Z,60.20
2023-09-17T00:31:47.213Z,60.30
2023-09-17T00:33:49.382Z,60.20
2023-09-17T00:35:51.648Z,60.20
2023-09-17T00:37:53.491Z,60.20
2023-09-17T00:39:55.325Z,60.20
2023-09-17T00:41:57.148Z,60.30
2023-09-17T00:43:59.402Z,60.20
2023-09-17T00:46:01.494Z,60.20
2023-09-17T00:48:04.554Z,60.20
2023-09-17T00:50:06.830Z,60.30
2023-09-17T00:52:13.677Z,60.10
2023-09-17T00:54:16.773Z,60.20
2023-09-17T00:56:18.790Z,60.30
2023-09-17T00:58:22.286Z,60.30
2023-09-17T01:00:25.314Z,60.30
2023-09-17T01:02:27.911Z,60.40
2023-09-17T01:04:30.043Z,60.40
2023-09-17T01:06:31.863Z,60.50
2023-09-17T01:08:34.218Z,60.50
2023-09-17T01:10:36.882Z,60.50
2023-09-17T01:12:39.967Z,60.50
2023-09-17T01:14:42.241Z,60.50
2023-09-17T01:16:46.479Z,60.50
2023-09-17T01:18:50.127Z,60.40
2023-09-17T01:20:53.381Z,60.40
2023-09-17T01:22:57.651Z,60.40
2023-09-17T01:24:59.423Z,60.40
2023-09-17T01:27:02.362Z,60.50
2023-09-17T01:29:06.095Z,60.60
2023-09-17T01:31:10.720Z,60.60
2023-09-17T01:33:12.625Z,60.50
2023-09-17T01:35:16.611Z,60.60
2023-09-17T01:37:24.348Z,60.60
2023-09-17T01:39:28.377Z,60.60
2023-09-17T01:41:30.692Z,60.60
2023-09-17T01:43:33.738Z,60.70
2023-09-17T01:45:36.283Z,60.70
2023-09-17T01:47:38.651Z,60.60
2023-09-17T01:49:41.859Z,60.60
2023-09-17T01:51:45.295Z,60.60
2023-09-17T01:53:47.341Z,60.60
2023-09-17T01:55:54.051Z,60.60
2023-09-17T01:57:56.216Z,60.60
2023-09-17T01:59:58.396Z,60.60
2023-09-17T02:02:00.554Z,60.70
2023-09-17T02:04:02.578Z,60.60
2023-09-17T02:06:05.484Z,60.70
2023-09-17T02:08:07.512Z,60.80
2023-09-17T02:10:09.359Z,60.70
2023-09-17T02:12:11.139Z,60.70
2023-09-17T02:14:13.944Z,60.70
2023-09-17T02:16:15.971Z,60.80
2023-09-17T02:18:20.313Z,60.80
2023-09-17T02:20:22.195Z,60.80
2023-09-17T02:22:24.048Z,61.30
2023-09-17T02:24:26.254Z,60.80
2023-09-17T02:26:28.307Z,60.70
2023-09-17T02:28:30.409Z,60.70
2023-09-17T02:30:32.379Z,60.60
2023-09-17T02:32:34.222Z,60.70
2023-09-17T02:34:36.292Z,60.80
2023-09-17T02:36:39.304Z,60.80
2023-09-17T02:38:42.471Z,60.80
2023-09-17T02:40:44.574Z,60.80
2023-09-17T02:42:47.106Z,60.90
2023-09-17T02:44:51.407Z,60.80
2023-09-17T02:46:53.504Z,60.90
2023-09-17T02:48:55.776Z,60.90
2023-09-17T02:50:57.635Z,60.90
2023-09-17T02:52:59.606Z,60.90
2023-09-17T02:55:01.757Z,61.00
2023-09-17T02:57:03.750Z,61.00
2023-09-17T02:59:06.558Z,60.90
2023-09-17T03:01:19.743Z,60.90
2023-09-17T03:03:22.570Z,61.00
2023-09-17T03:05:25.286Z,61.00
2023-09-17T03:07:28.173Z,61.00
2023-09-17T03:09:30.622Z,61.00
2023-09-17T03:11:32.722Z,61.00
2023-09-17T03:13:34.625Z,61.10
2023-09-17T03:15:36.645Z,61.00
2023-09-17T03:17:38.995Z,61.00
2023-09-17T03:19:41.050Z,61.00
2023-09-17T03:21:42.986Z,61.10
2023-09-17T03:23:44.877Z,61.10
2023-09-17T03:25:46.841Z,61.10
2023-09-17T03:27:51.449Z,61.10
2023-09-17T03:29:53.376Z,61.10
2023-09-17T03:31:55.492Z,61.20
2023-09-17T03:33:58.307Z,61.10
2023-09-17T03:36:00.445Z,61.10
2023-09-17T03:38:03.380Z,61.10
2023-09-17T03:40:09.257Z,61.00
2023-09-17T03:42:11.195Z,61.10
2023-09-17T03:44:15.946Z,61.10
2023-09-17T03:46:17.863Z,61.20
2023-09-17T03:48:20.195Z,61.20
2023-09-17T03:50:22.055Z,61.20
2023-09-17T03:52:24.181Z,61.30
2023-09-17T03:54:26.017Z,61.30
2023-09-17T03:56:28.003Z,61.40
2023-09-17T03:58:30.732Z,61.40
2023-09-17T04:00:32.556Z,61.40
2023-09-17T04:02:37.845Z,61.50
2023-09-17T04:04:39.840Z,61.50
2023-09-17T04:06:41.740Z,61.40
2023-09-17T04:08:44.051Z,61.40
2023-09-17T04:10:46.079Z,61.30
2023-09-17T04:12:48.489Z,61.40
2023-09-17T04:14:50.353Z,61.30
2023-09-17T04:16:52.222Z,61.40
2023-09-17T04:18:54.143Z,61.50
2023-09-17T04:20:56.705Z,61.40
2023-09-17T04:22:58.648Z,61.40
2023-09-17T04:25:00.678Z,61.50
2023-09-17T04:27:02.771Z,61.50
2023-09-17T04:29:06.012Z,61.50
2023-09-17T04:31:07.998Z,61.50
2023-09-17T04:33:09.988Z,61.40
2023-09-17T04:35:12.878Z,61.50
2023-09-17T04:37:21.446Z,61.50
2023-09-17T04:39:23.303Z,61.50
2023-09-17T04:41:25.104Z,61.50
2023-09-17T04:43:27.987Z,61.50
2023-09-17T04:45:34.768Z,61.50
2023-09-17T04:47:37.711Z,61.50
2023-09-17T04:49:39.543Z,61.50
2023-09-17T04:51:41.358Z,61.50
2023-09-17T04:53:44.023Z,61.60
2023-09-17T04:55:45.889Z,61.60
2023-09-17T04:57:47.752Z,61.50
2023-09-17T04:59:50.748Z,61.50
2023-09-17T05:01:52.783Z,61.60
2023-09-17T05:03:55.141Z,61.50
2023-09-17T05:05:57.313Z,61.60
2023-09-17T05:07:59.267Z,61.60
2023-09-17T05:10:01.107Z,61.60
2023-09-17T05:12:03.058Z,61.60
2023-09-17T05:14:05.088Z,61.70
2023-09-17T05:16:07.740Z,61.60
2023-09-17T05:18:12.407Z,61.60
2023-09-17T05:20:14.183Z,61.70
2023-09-17T05:22:16.658Z,61.60
2023-09-17T05:24:18.554Z,61.70
2023-09-17T05:26:20.317Z,61.70
2023-09-17T05:28:22.387Z,61.60
2023-09-17T05:30:24.212Z,61.60
2023-09-17T05:32:26.102Z,62.30
2023-09-17T05:34:28.007Z,61.80
2023-09-17T05:36:30.588Z,61.70
2023-09-17T05:38:32.625Z,61.70
2023-09-17T05:40:35.392Z,61.70
2023-09-17T05:42:37.533Z,61.70
2023-09-17T05:44:40.060Z,61.80
2023-09-17T05:46:41.886Z,61.80
2023-09-17T05:48:43.758Z,61.80
2023-09-17T05:50:47.354Z,61.80
2023-09-17T05:52:49.358Z,61.80
2023-09-17T05:54:51.303Z,61.80
2023-09-17T05:56:53.254Z,61.80
2023-09-17T05:58:55.138Z,61.80
2023-09-17T06:00:56.960Z,61.80
2023-09-17T06:02:59.299Z,61.90
2023-09-17T06:05:01.394Z,61.80
2023-09-17T06:07:03.322Z,61.90
2023-09-17T06:09:05.340Z,61.80
2023-09-17T06:11:07.339Z,61.90
2023-09-17T06:13:09.431Z,61.80
2023-09-17T06:15:11.527Z,61.80
2023-09-17T06:17:13.415Z,61.80
2023-09-17T06:19:15.896Z,62.40
2023-09-17T06:21:17.745Z,61.80
2023-09-17T06:23:19.792Z,61.90
2023-09-17T06:25:23.362Z,61.90
2023-09-17T06:27:25.170Z,61.90
2023-09-17T06:29:27.272Z,61.90
2023-09-17T06:31:29.282Z,61.90
2023-09-17T06:33:31.565Z,61.90
2023-09-17T06:35:33.513Z,61.90
2023-09-17T06:37:35.433Z,61.90
2023-09-17T06:39:37.428Z,62.00
2023-09-17T06:41:42.081Z,61.90
2023-09-17T06:43:46.666Z,61.90
2023-09-17T06:45:48.550Z,61.90
2023-09-17T06:47:50.505Z,62.00
2023-09-17T06:49:52.415Z,62.00
2023-09-17T06:51:55.631Z,62.00
2023-09-17T06:53:57.545Z,62.00
2023-09-17T06:55:59.807Z,61.90
2023-09-17T06:58:01.605Z,62.00
2023-09-17T07:00:03.606Z,62.10
2023-09-17T07:02:05.800Z,62.00
2023-09-17T07:04:07.661Z,62.10
2023-09-17T07:06:09.457Z,62.10
2023-09-17T07:08:11.289Z,62.00
2023-09-17T07:10:13.127Z,62.00
2023-09-17T07:12:15.018Z,62.00
2023-09-17T07:14:17.748Z,62.10
2023-09-17T07:16:20.320Z,62.00
2023-09-17T07:18:22.801Z,62.10
2023-09-17T07:20:24.806Z,62.10
2023-09-17T07:22:26.880Z,62.00
2023-09-17T07:24:28.679Z,62.10
2023-09-17T07:26:30.597Z,61.90
2023-09-17T07:28:32.770Z,62.10
2023-09-17T07:30:36.222Z,62.10
2023-09-17T07:32:38.075Z,62.20
2023-09-17T07:34:41.382Z,62.10
2023-09-17T07:36:43.429Z,62.10
2023-09-17T07:38:45.257Z,62.10
2023-09-17T07:40:49.172Z,62.10
2023-09-17T07:42:51.012Z,62.10
2023-09-17T07:44:52.801Z,62.20
2023-09-17T07:46:54.675Z,62.20
2023-09-17T07:48:56.473Z,62.20
2023-09-17T07:50:59.024Z,62.10
2023-09-17T07:53:00.952Z,62.10
2023-09-17T07:55:02.857Z,62.30
2023-09-17T07:57:05.320Z,62.10
2023-09-17T07:59:07.270Z,62.20
2023-09-17T08:01:09.300Z,62.10
2023-09-17T08:03:11.348Z,62.10
2023-09-17T08:05:13.388Z,62.10
2023-09-17T08:07:15.346Z,62.20
2023-09-17T08:09:18.196Z,62.10
2023-09-17T08:11:20.932Z,62.10
2023-09-17T08:13:23.220Z,62.10
2023-09-17T08:15:25.111Z,62.10
2023-09-17T08:17:27.069Z,62.10
2023-09-17T08:19:29.084Z,62.10
2023-09-17T08:21:33.052Z,62.00
2023-09-17T08:23:35.396Z,62.20
2023-09-17T08:25:38.079Z,62.10
2023-09-17T08:27:40.616Z,62.10
2023-09-17T08:29:42.510Z,62.10
2023-09-17T08:31:44.894Z,62.10
2023-09-17T08:33:47.051Z,62.70
2023-09-17T08:35:49.241Z,62.10
2023-09-17T08:37:52.008Z,62.20
2023-09-17T08:39:53.967Z,62.10
2023-09-17T08:41:55.873Z,62.10
2023-09-17T08:43:58.592Z,62.00
2023-09-17T08:46:05.057Z,62.10
2023-09-17T08:48:07.523Z,62.00
2023-09-17T08:50:13.141Z,62.10
2023-09-17T08:52:17.548Z,62.10
2023-09-17T08:54:30.814Z,62.10
2023-09-17T08:56:35.384Z,62.00
2023-09-17T08:58:44.446Z,62.10
2023-09-17T09:00:49.848Z,62.10
2023-09-17T09:03:00.661Z,62.10
2023-09-17T09:05:03.765Z,62.10
2023-09-17T09:07:07.029Z,62.20
2023-09-17T09:09:09.578Z,62.10
2023-09-17T09:11:11.762Z,62.10
2023-09-17T09:13:13.771Z,62.10
2023-09-17T09:15:15.990Z,62.10
2023-09-17T09:17:17.804Z,62.10
2023-09-17T09:19:19.621Z,62.10
2023-09-17T09:21:21.489Z,62.10
2023-09-17T09:23:24.315Z,62.10
2023-09-17T09:25:27.736Z,62.10
2023-09-17T09:27:29.775Z,62.10
2023-09-17T09:29:31.543Z,61.90
2023-09-17T09:31:34.011Z,62.10
2023-09-17T09:33:37.127Z,61.90
2023-09-17T09:35:39.471Z,62.10
2023-09-17T09:37:41.575Z,62.10
2023-09-17T09:39:43.684Z,62.20
2023-09-17T09:41:45.547Z,62.20
2023-09-17T09:43:47.489Z,62.10
2023-09-17T09:45:49.666Z,62.10
2023-09-17T09:47:51.951Z,62.10
2023-09-17T09:49:54.647Z,62.30
2023-09-17T09:51:59.483Z,62.40
2023-09-17T09:54:01.315Z,62.20
2023-09-17T09:56:04.301Z,62.10
2023-09-17T09:58:06.196Z,61.90
2023-09-17T10:00:15.334Z,62.00
2023-09-17T10:02:18.398Z,61.90
2023-09-17T10:04:20.794Z,62.20
2023-09-17T10:06:24.217Z,62.10
2023-09-17T10:08:26.418Z,61.80
2023-09-17T10:10:28.447Z,61.70
2023-09-17T10:12:30.290Z,61.80
2023-09-17T10:14:38.452Z,61.70
2023-09-17T10:16:41.140Z,61.50
2023-09-17T10:18:44.929Z,61.70
2023-09-17T10:20:49.172Z,61.60
2023-09-17T10:22:51.398Z,61.70
2023-09-17T10:24:56.718Z,61.60
2023-09-17T10:27:00.651Z,61.50
2023-09-17T10:29:03.787Z,61.80
2023-09-17T10:31:07.396Z,62.10
2023-09-17T10:33:10.426Z,61.90
2023-09-17T10:35:12.506Z,61.70
2023-09-17T10:37:15.810Z,61.70
2023-09-17T10:39:19.763Z,61.80
2023-09-17T10:41:22.992Z,61.90
2023-09-17T10:43:25.615Z,61.70
2023-09-17T10:45:28.170Z,61.80
2023-09-17T10:47:32.185Z,61.80
2023-09-17T10:49:37.581Z,61.60
2023-09-17T10:51:40.996Z,61.80
2023-09-17T10:53:42.951Z,61.70
2023-09-17T10:55:47.323Z,61.80
2023-09-17T10:57:55.488Z,62.00
2023-09-17T11:00:01.190Z,61.90
2023-09-17T11:02:03.097Z,61.90
2023-09-17T11:04:08.129Z,62.20
2023-09-17T11:06:18.122Z,61.70
2023-09-17T11:08:20.549Z,61.80
2023-09-17T11:10:32.006Z,61.80
2023-09-17T11:12:35.257Z,61.90
2023-09-17T11:14:37.185Z,61.90
2023-09-17T11:16:39.847Z,61.70
2023-09-17T11:18:42.378Z,61.90
2023-09-17T11:21:01.729Z,62.00
2023-09-17T11:23:04.769Z,62.00
2023-09-17T11:25:08.341Z,62.00
2023-09-17T11:27:11.993Z,62.10
2023-09-17T11:29:14.565Z,61.80
2023-09-17T11:31:17.671Z,61.60
2023-09-17T11:33:19.612Z,61.60
2023-09-17T11:35:23.417Z,61.70
2023-09-17T11:37:26.473Z,61.70
2023-09-17T11:39:28.556Z,61.60
2023-09-17T11:41:32.263Z,61.90
2023-09-17T11:43:35.659Z,61.70
2023-09-17T11:45:39.981Z,61.50
2023-09-17T11:47:42.020Z,62.40
2023-09-17T11:49:43.975Z,61.80
2023-09-17T11:51:47.174Z,61.60
2023-09-17T11:53:52.321Z,61.70
2023-09-17T11:56:02.601Z,61.50
2023-09-17T11:58:18.164Z,61.90
2023-09-17T12:00:29.751Z,61.80
2023-09-17T12:02:31.711Z,61.70
2023-09-17T12:04:37.071Z,61.80
2023-09-17T12:06:40.592Z,61.80
2023-09-17T12:08:42.492Z,61.80
2023-09-17T12:10:51.736Z,62.00
2023-09-17T12:12:53.786Z,62.10
2023-09-17T12:14:56.475Z,62.00
2023-09-17T12:16:59.057Z,62.00
2023-09-17T12:19:15.955Z,62.00
2023-09-17T12:21:28.683Z,62.00
2023-09-17T12:23:48.322Z,62.00
2023-09-17T12:25:50.594Z,61.90
2023-09-17T12:27:52.418Z,61.90
2023-09-17T12:29:54.905Z,61.90
2023-09-17T12:31:59.259Z,61.80
2023-09-17T12:34:01.447Z,62.00
2023-09-17T12:36:03.871Z,61.90
2023-09-17T12:38:07.569Z,62.00
2023-09-17T12:40:10.162Z,61.70
2023-09-17T12:42:12.017Z,62.00
2023-09-17T12:44:13.907Z,61.90
2023-09-17T12:46:16.006Z,62.20
2023-09-17T12:48:19.592Z,61.90
2023-09-17T12:50:21.991Z,61.70
2023-09-17T12:52:24.140Z,62.00
2023-09-17T12:54:26.032Z,61.90
2023-09-17T12:56:29.573Z,61.80
2023-09-17T12:58:34.578Z,61.90
2023-09-17T13:00:36.524Z,61.50
2023-09-17T13:02:39.403Z,62.20
2023-09-17T13:04:42.276Z,62.00
2023-09-17T13:06:44.349Z,61.90
2023-09-17T13:08:47.612Z,61.80
2023-09-17T13:10:49.698Z,61.90
2023-09-17T13:12:51.705Z,61.70
2023-09-17T13:14:53.721Z,61.80
2023-09-17T13:16:55.837Z,61.90
2023-09-17T13:18:58.163Z,62.00
2023-09-17T13:21:00.127Z,61.80
2023-09-17T13:23:02.584Z,62.00
2023-09-17T13:25:04.943Z,62.10
2023-09-17T13:27:07.663Z,62.20
2023-09-17T13:29:09.501Z,62.10
2023-09-17T13:31:12.368Z,62.10
2023-09-17T13:33:15.929Z,62.80
2023-09-17T13:35:19.945Z,62.20
2023-09-17T13:37:22.123Z,62.00
2023-09-17T13:39:24.646Z,62.10
2023-09-17T13:41:29.686Z,62.00
2023-09-17T13:43:32.025Z,62.00
2023-09-17T13:45:33.965Z,61.80
2023-09-17T13:47:35.860Z,61.90
2023-09-17T13:49:38.456Z,62.00
2023-09-17T13:51:40.336Z,62.20
2023-09-17T13:53:42.317Z,61.80
2023-09-17T13:55:44.519Z,62.00
2023-09-17T13:57:46.475Z,62.10
2023-09-17T13:59:48.299Z,62.20
2023-09-17T14:01:50.474Z,62.10
2023-09-17T14:03:52.390Z,62.20
2023-09-17T14:05:55.008Z,62.10
2023-09-17T14:07:57.159Z,61.90
2023-09-17T14:09:59.170Z,61.90
2023-09-17T14:12:00.973Z,62.10
2023-09-17T14:14:02.942Z,62.00
2023-09-17T14:16:05.144Z,62.00
2023-09-17T14:18:07.029Z,62.00
2023-09-17T14:20:10.006Z,61.70
2023-09-17T14:22:12.165Z,61.60
2023-09-17T14:24:13.982Z,61.60
2023-09-17T14:26:16.013Z,62.10
2023-09-17T14:28:17.903Z,62.00
2023-09-17T14:30:23.240Z,61.90
2023-09-17T14:32:26.765Z,61.90
2023-09-17T14:34:28.805Z,62.00
2023-09-17T14:36:30.798Z,61.90
2023-09-17T14:38:32.686Z,61.80
2023-09-17T14:40:34.986Z,62.00
2023-09-17T14:42:36.961Z,62.00
2023-09-17T14:44:38.741Z,61.70
2023-09-17T14:46:40.858Z,62.00
2023-09-17T14:48:42.810Z,62.00
2023-09-17T14:50:44.831Z,62.00
2023-09-17T14:52:46.670Z,61.90
2023-09-17T14:54:49.806Z,61.70
2023-09-17T14:56:53.411Z,62.00
2023-09-17T14:58:55.449Z,61.90
2023-09-17T15:00:57.432Z,62.00
2023-09-17T15:02:59.756Z,61.80
2023-09-17T15:05:02.196Z,61.70
2023-09-17T15:07:04.494Z,62.10
2023-09-17T15:09:06.549Z,61.80
2023-09-17T15:11:08.565Z,62.00
2023-09-17T15:13:10.681Z,61.70
2023-09-17T15:15:12.492Z,61.80
2023-09-17T15:17:14.764Z,61.60
2023-09-17T15:19:16.755Z,61.70
2023-09-17T15:21:18.764Z,61.70
2023-09-17T15:23:20.683Z,61.50
2023-09-17T15:25:22.529Z,61.50
2023-09-17T15:27:24.618Z,61.60
2023-09-17T15:29:26.814Z,61.50
2023-09-17T15:31:28.809Z,61.30
2023-09-17T15:33:30.999Z,61.70
2023-09-17T15:35:32.941Z,61.90
2023-09-17T15:37:34.976Z,61.80
2023-09-17T15:39:37.004Z,61.60
2023-09-17T15:41:38.915Z,61.70
2023-09-17T15:43:41.220Z,61.20
2023-09-17T15:45:43.061Z,61.60
2023-09-17T15:47:45.278Z,61.70
2023-09-17T15:49:49.744Z,61.70
2023-09-17T15:51:53.838Z,61.70
2023-09-17T15:53:55.758Z,61.20
2023-09-17T15:55:57.930Z,61.40
2023-09-17T15:57:59.912Z,61.60
2023-09-17T16:00:01.976Z,61.80
2023-09-17T16:02:04.610Z,61.50
2023-09-17T16:04:06.835Z,61.60
2023-09-17T16:06:09.006Z,61.60
2023-09-17T16:08:11.372Z,61.50
2023-09-17T16:10:13.225Z,61.50
2023-09-17T16:12:15.395Z,61.00
2023-09-17T16:14:17.186Z,61.30
2023-09-17T16:16:19.226Z,61.20
2023-09-17T16:18:21.126Z,61.10
2023-09-17T16:20:23.861Z,61.30
2023-09-17T16:22:26.313Z,61.50
2023-09-17T16:24:28.284Z,61.80
2023-09-17T16:26:30.666Z,61.80
2023-09-17T16:28:33.791Z,61.20
2023-09-17T16:30:35.863Z,61.70
2023-09-17T16:32:38.058Z,61.20
2023-09-17T16:34:40.528Z,61.30
2023-09-17T16:36:43.185Z,61.10
2023-09-17T16:38:45.223Z,61.40
2023-09-17T16:40:47.905Z,61.20
2023-09-17T16:43:05.811Z,61.50
2023-09-17T16:45:11.360Z,61.10
2023-09-17T16:47:14.242Z,61.10
2023-09-17T16:49:16.198Z,61.10
2023-09-17T16:51:19.296Z,61.10
2023-09-17T16:53:21.573Z,61.00
2023-09-17T16:55:23.831Z,61.80
2023-09-17T16:57:25.789Z,61.30
2023-09-17T16:59:27.609Z,61.00
2023-09-17T17:01:29.643Z,60.80
2023-09-17T17:03:31.519Z,61.30
2023-09-17T17:05:33.669Z,61.30
2023-09-17T17:07:35.912Z,61.00
2023-09-17T17:09:37.691Z,60.90
2023-09-17T17:11:39.626Z,61.00
2023-09-17T17:13:41.533Z,61.10
2023-09-17T17:15:43.733Z,61.10
2023-09-17T17:17:45.759Z,61.20
2023-09-17T17:19:47.770Z,61.10
2023-09-17T17:21:49.662Z,62.00
2023-09-17T17:23:52.107Z,61.20
2023-09-17T17:25:54.487Z,61.20
2023-09-17T17:27:56.284Z,61.20
2023-09-17T17:29:58.101Z,61.30
2023-09-17T17:31:59.961Z,61.50
2023-09-17T17:34:01.758Z,61.40
2023-09-17T17:36:03.701Z,61.10
2023-09-17T17:38:05.578Z,61.30
2023-09-17T17:40:09.120Z,61.40
2023-09-17T17:42:11.126Z,61.20
2023-09-17T17:44:13.145Z,61.60
2023-09-17T17:46:15.221Z,61.50
2023-09-17T17:48:17.504Z,61.50
2023-09-17T17:50:19.547Z,61.30
2023-09-17T17:52:22.126Z,61.20
2023-09-17T17:54:24.215Z,61.90
2023-09-17T17:56:26.059Z,61.60
2023-09-17T17:58:27.916Z,61.60
2023-09-17T18:00:29.765Z,61.60
2023-09-17T18:02:31.736Z,61.50
2023-09-17T18:04:33.711Z,61.30
2023-09-17T18:06:35.664Z,61.40
2023-09-17T18:08:38.060Z,61.70
2023-09-17T18:10:40.978Z,61.40
2023-09-17T18:12:42.849Z,61.40
2023-09-17T18:14:45.338Z,61.30
2023-09-17T18:16:47.308Z,61.40
2023-09-17T18:18:49.288Z,61.70
2023-09-17T18:20:51.249Z,61.80
2023-09-17T18:22:53.193Z,61.50
2023-09-17T18:24:55.147Z,61.50
2023-09-17T18:26:57.024Z,61.60
2023-09-17T18:28:59.909Z,61.50
2023-09-17T18:31:02.092Z,61.40
2023-09-17T18:33:04.858Z,61.30
2023-09-17T18:35:07.312Z,61.30
2023-09-17T18:37:09.279Z,61.20
2023-09-17T18:39:11.341Z,61.50
2023-09-17T18:41:13.422Z,61.60
2023-09-17T18:43:15.463Z,61.80
2023-09-17T18:45:17.607Z,61.60
2023-09-17T18:47:20.529Z,61.60
2023-09-17T18:49:22.472Z,61.50
2023-09-17T18:51:24.367Z,61.60
2023-09-17T18:53:26.195Z,61.60
2023-09-17T18:55:28.739Z,61.50
2023-09-17T18:57:30.983Z,61.30
2023-09-17T18:59:33.121Z,61.40
2023-09-17T19:01:35.582Z,61.20
2023-09-17T19:03:37.801Z,61.30
2023-09-17T19:05:41.713Z,61.40
2023-09-17T19:07:43.771Z,61.70
2023-09-17T19:09:45.587Z,61.50
2023-09-17T19:11:47.373Z,61.40
2023-09-17T19:13:49.830Z,61.50
2023-09-17T19:15:52.249Z,61.50
2023-09-17T19:17:54.303Z,61.50
2023-09-17T19:19:56.184Z,61.50
2023-09-17T19:21:58.034Z,61.70
2023-09-17T19:24:00.928Z,61.70
2023-09-17T19:26:03.360Z,61.60
2023-09-17T19:28:10.000Z,61.40
2023-09-17T19:30:12.443Z,62.60
2023-09-17T19:32:17.523Z,62.30
2023-09-17T19:34:19.507Z,62.10
2023-09-17T19:36:21.961Z,62.60
2023-09-17T19:38:24.027Z,62.50
2023-09-17T19:40:26.109Z,62.70
2023-09-17T19:42:29.263Z,62.70
2023-09-17T19:44:31.244Z,62.40
2023-09-17T19:46:33.364Z,62.60
2023-09-17T19:48:35.718Z,62.60
2023-09-17T19:50:37.971Z,62.80
2023-09-17T19:52:39.753Z,63.10
2023-09-17T19:54:44.970Z,63.10
2023-09-17T19:56:48.036Z,62.80
2023-09-17T19:58:50.255Z,64.60
2023-09-17T20:00:52.326Z,66.40
2023-09-17T20:02:54.469Z,64.80
2023-09-17T20:04:56.555Z,64.80
2023-09-17T20:06:59.664Z,64.90
2023-09-17T20:09:01.595Z,64.80
2023-09-17T20:11:03.717Z,65.50
2023-09-17T20:13:06.294Z,65.70
2023-09-17T20:15:08.400Z,65.20
2023-09-17T20:17:10.550Z,65.70
2023-09-17T20:19:12.919Z,65.80
2023-09-17T20:21:14.941Z,65.20
2023-09-17T20:23:16.944Z,65.10
2023-09-17T20:25:22.740Z,64.80
2023-09-17T20:27:25.218Z,64.40
2023-09-17T20:29:27.114Z,64.90
2023-09-17T20:31:29.438Z,64.50
2023-09-17T20:33:32.205Z,64.70
2023-09-17T20:35:34.299Z,64.40
2023-09-17T20:37:36.438Z,64.40
2023-09-17T20:39:38.588Z,64.20
2023-09-17T20:41:40.861Z,64.20
2023-09-17T20:43:42.716Z,64.10
2023-09-17T20:45:44.660Z,64.50
2023-09-17T20:47:46.854Z,64.20
2023-09-17T20:49:48.867Z,64.10
2023-09-17T20:51:50.955Z,64.00
2023-09-17T20:53:53.195Z,64.00
2023-09-17T20:55:55.469Z,64.00
2023-09-17T20:57:57.238Z,63.90
2023-09-17T21:00:00.597Z,63.90
2023-09-17T21:02:02.460Z,63.90
2023-09-17T21:04:04.529Z,63.90
2023-09-17T21:06:09.511Z,63.90
2023-09-17T21:08:11.314Z,64.00
2023-09-17T21:10:13.195Z,64.00
2023-09-17T21:12:15.081Z,64.00
2023-09-17T21:14:18.313Z,63.90
2023-09-17T21:16:20.249Z,64.00
2023-09-17T21:18:22.075Z,64.00
2023-09-17T21:20:23.956Z,64.10
2023-09-17T21:22:26.162Z,64.00
2023-09-17T21:24:28.203Z,64.10
2023-09-17T21:26:31.026Z,64.20
2023-09-17T21:28:33.654Z,64.20
2023-09-17T21:30:35.596Z,64.10
2023-09-17T21:32:37.451Z,64.00
2023-09-17T21:34:39.546Z,64.00
2023-09-17T21:36:41.603Z,64.00
2023-09-17T21:38:43.524Z,64.00
2023-09-17T21:40:45.510Z,64.10
2023-09-17T21:42:47.427Z,64.20
2023-09-17T21:44:49.409Z,64.30
2023-09-17T21:46:52.422Z,64.20
2023-09-17T21:48:54.358Z,64.40
2023-09-17T21:50:56.204Z,64.30
2023-09-17T21:52:58.111Z,64.40
2023-09-17T21:54:59.880Z,64.50
2023-09-17T21:57:20.426Z,64.50
2023-09-17T21:59:22.453Z,64.50
2023-09-17T22:01:26.254Z,64.50
2023-09-17T22:03:28.458Z,64.50
2023-09-17T22:05:30.735Z,64.40
2023-09-17T22:07:32.901Z,64.40
2023-09-17T22:09:37.202Z,64.40
2023-09-17T22:11:39.001Z,64.40
2023-09-17T22:13:40.921Z,64.30
2023-09-17T22:15:42.797Z,64.30
2023-09-17T22:17:44.786Z,64.30
2023-09-17T22:19:52.617Z,64.40
2023-09-17T22:21:54.523Z,64.40
2023-09-17T22:23:56.316Z,64.50
2023-09-17T22:25:58.238Z,64.50
2023-09-17T22:28:00.153Z,64.50
2023-09-17T22:30:02.037Z,64.50
2023-09-17T22:32:04.161Z,64.50
2023-09-17T22:34:06.322Z,64.40
2023-09-17T22:36:09.719Z,64.50
2023-09-17T22:38:14.145Z,64.50
2023-09-17T22:40:16.530Z,64.40
2023-09-17T22:42:18.329Z,64.50
2023-09-17T22:44:24.447Z,64.40
2023-09-17T22:46:29.157Z,64.40
2023-09-17T22:48:31.044Z,64.50
2023-09-17T22:50:33.478Z,64.50
2023-09-17T22:52:35.465Z,64.60
2023-09-17T22:54:37.288Z,64.50
2023-09-17T22:56:39.123Z,64.70
2023-09-17T22:58:41.146Z,64.60
2023-09-17T23:00:45.756Z,64.60
2023-09-17T23:02:47.657Z,64.80
2023-09-17T23:04:49.781Z,64.60
2023-09-17T23:06:51.751Z,64.70
2023-09-17T23:08:54.606Z,64.70
2023-09-17T23:11:01.180Z,64.90
2023-09-17T23:13:03.331Z,64.80
2023-09-17T23:15:05.277Z,64.80
2023-09-17T23:17:07.157Z,64.90
2023-09-17T23:19:09.067Z,64.90
2023-09-17T23:21:16.312Z,64.90
2023-09-17T23:23:18.395Z,64.90
2023-09-17T23:25:23.023Z,65.00
2023-09-17T23:27:25.082Z,65.00
2023-09-17T23:29:28.304Z,65.10
2023-09-17T23:31:30.212Z,65.20
2023-09-17T23:33:32.514Z,65.00
2023-09-17T23:35:34.571Z,65.10
2023-09-17T23:37:36.428Z,65.20
2023-09-17T23:39:43.767Z,65.30
2023-09-17T23:41:45.596Z,65.30
2023-09-17T23:43:47.507Z,65.20
2023-09-17T23:45:49.376Z,65.30
2023-09-17T23:47:51.954Z,65.20
2023-09-17T23:49:54.553Z,65.30
2023-09-17T23:51:56.422Z,65.30
2023-09-17T23:53:58.206Z,65.30
2023-09-17T23:56:00.619Z,65.40
2023-09-17T23:58:02.521Z,65.30
